Time;durP1;ratioP1;P1;durP2;ratioP2;P2;SDS_P1;SDS_P2;PMS_P1;PMS_P2;Temp;Humidity;BMP_temperature;BMP_pressure;BME280_temperature;BME280_humidity;BME280_pressure;Samples;Min_cycle;Max_cycle;Signal;HPM_P1;HPM_P2
2023/11/08 00:00:57;;;;;;;4.68;1.05;;;;;;;7.61;100.00;100861.88;5021327;28;20045;-69
2023/11/08 00:03:22;;;;;;;5.18;1.30;;;;;;;7.67;100.00;100858.75;5012239;28;20037;-70
2023/11/08 00:05:48;;;;;;;5.95;1.23;;;;;;;7.64;100.00;100865.94;5025843;28;20045;-68
2023/11/08 00:08:13;;;;;;;7.25;1.55;;;;;;;7.68;100.00;100864.72;5010363;28;20037;-69
2023/11/08 00:10:40;;;;;;;7.60;2.25;;;;;;;7.54;100.00;100864.16;4994424;28;20038;-70
2023/11/08 00:13:06;;;;;;;4.20;1.10;;;;;;;7.58;100.00;100873.25;5008724;28;20077;-69
2023/11/08 00:15:31;;;;;;;8.65;1.55;;;;;;;7.72;100.00;100871.22;5008450;28;20673;-69
2023/11/08 00:17:58;;;;;;;3.95;0.93;;;;;;;7.66;100.00;100869.19;5025012;28;20037;-69
2023/11/08 00:20:23;;;;;;;5.22;0.90;;;;;;;7.57;100.00;100881.13;5009122;28;20045;-69
2023/11/08 00:22:49;;;;;;;4.85;0.93;;;;;;;7.53;100.00;100866.88;5024420;28;20033;-69
2023/11/08 00:25:15;;;;;;;3.20;0.90;;;;;;;7.54;100.00;100871.09;5024523;28;20558;-69
2023/11/08 00:27:41;;;;;;;5.68;1.67;;;;;;;7.54;100.00;100874.47;5025948;28;20025;-69
2023/11/08 00:30:07;;;;;;;4.95;1.23;;;;;;;7.60;100.00;100871.34;5009037;28;20056;-69
2023/11/08 00:32:33;;;;;;;5.13;1.40;;;;;;;7.51;100.00;100882.47;4993058;28;20399;-69
2023/11/08 00:35:01;;;;;;;4.65;0.93;;;;;;;7.63;100.00;100877.19;5000386;28;20041;-69
2023/11/08 00:37:27;;;;;;;3.45;1.15;;;;;;;7.64;100.00;100884.00;4995576;28;20622;-69
2023/11/08 00:39:52;;;;;;;7.03;1.30;;;;;;;7.54;100.00;100877.06;5022014;28;20034;-69
2023/11/08 00:42:18;;;;;;;4.15;1.38;;;;;;;7.64;100.00;100878.84;4988041;28;20680;-69
2023/11/08 00:44:43;;;;;;;2.92;1.10;;;;;;;7.68;100.00;100891.34;5010612;28;20036;-69
2023/11/08 00:47:09;;;;;;;3.20;1.23;;;;;;;7.58;100.00;100890.53;5009982;28;20025;-69
2023/11/08 00:49:35;;;;;;;7.97;0.98;;;;;;;7.56;100.00;100888.06;5007597;28;20408;-69
2023/11/08 00:52:01;;;;;;;6.00;1.67;;;;;;;7.59;100.00;100892.13;5009428;28;20057;-69
2023/11/08 00:54:32;;;;;;;4.40;1.00;;;;;;;7.54;100.00;100895.13;5025846;28;20042;-69
2023/11/08 00:56:58;;;;;;;3.92;1.23;;;;;;;7.63;100.00;100882.38;5006090;28;20037;-69
2023/11/08 00:59:23;;;;;;;8.98;1.10;;;;;;;7.70;100.00;100886.84;5002936;28;20041;-69
2023/11/08 01:01:49;;;;;;;4.22;1.00;;;;;;;7.66;100.00;100887.25;5017397;23;20440;-68
2023/11/08 01:04:14;;;;;;;10.27;1.13;;;;;;;7.62;100.00;100883.31;5043347;28;20041;-68
2023/11/08 01:06:40;;;;;;;3.00;1.08;;;;;;;7.69;100.00;100887.00;5011184;28;20599;-68
2023/11/08 01:09:11;;;;;;;4.80;1.17;;;;;;;7.70;100.00;100880.88;5029338;28;20156;-68
2023/11/08 01:11:37;;;;;;;8.68;1.08;;;;;;;7.77;100.00;100884.56;5018926;28;20495;-69
2023/11/08 01:14:04;;;;;;;8.07;1.30;;;;;;;7.68;100.00;100896.50;5015020;28;20036;-68
2023/11/08 01:16:35;;;;;;;5.47;0.98;;;;;;;7.63;100.00;100901.25;5009475;28;20045;-68
2023/11/08 01:19:02;;;;;;;6.20;1.15;;;;;;;7.68;100.00;100898.25;5028202;28;20104;-68
2023/11/08 01:21:31;;;;;;;7.82;1.55;;;;;;;7.69;100.00;100894.75;5011142;28;20046;-68
2023/11/08 01:23:56;;;;;;;6.65;2.10;;;;;;;7.72;100.00;100904.78;5005640;28;20091;-68
2023/11/08 01:26:22;;;;;;;3.65;1.10;;;;;;;7.63;100.00;100903.00;5022440;28;20042;-68
2023/11/08 01:28:48;;;;;;;6.38;0.85;;;;;;;7.56;100.00;100897.59;5008846;28;20058;-68
2023/11/08 01:31:13;;;;;;;8.50;1.15;;;;;;;7.54;100.00;100900.28;5013908;28;20099;-68
2023/11/08 01:33:39;;;;;;;9.30;1.05;;;;;;;7.68;100.00;100900.84;5014170;28;20033;-68
2023/11/08 01:36:06;;;;;;;4.75;1.63;;;;;;;7.60;100.00;100906.69;5008587;28;20598;-68
2023/11/08 01:38:31;;;;;;;6.13;1.25;;;;;;;7.57;100.00;100912.94;5011798;28;20038;-68
2023/11/08 01:40:57;;;;;;;8.32;1.13;;;;;;;7.70;100.00;100915.25;5007967;28;20034;-68
2023/11/08 01:43:32;;;;;;;4.00;0.93;;;;;;;7.67;100.00;100918.09;5001983;28;20041;-68
2023/11/08 01:46:11;;;;;;;4.75;1.10;;;;;;;7.81;100.00;100911.72;5015083;28;20052;-68
2023/11/08 01:48:38;;;;;;;3.55;0.95;;;;;;;7.85;100.00;100910.50;5016217;28;20376;-68
2023/11/08 01:51:07;;;;;;;4.63;0.70;;;;;;;7.76;100.00;100904.41;5014696;28;20088;-68
2023/11/08 01:53:40;;;;;;;7.20;1.33;;;;;;;7.69;100.00;100917.97;5026798;28;20061;-69
2023/11/08 01:56:10;;;;;;;9.95;1.52;;;;;;;7.64;100.00;100917.56;5006277;28;20073;-69
2023/11/08 01:58:38;;;;;;;4.93;0.90;;;;;;;7.64;100.00;100918.38;4992917;28;20026;-69
2023/11/08 02:01:10;;;;;;;1.63;0.60;;;;;;;7.63;100.00;100923.66;5010363;28;20033;-69
2023/11/08 02:03:37;;;;;;;8.13;1.07;;;;;;;7.71;100.00;100923.81;5014744;28;20492;-69
2023/11/08 02:06:04;;;;;;;5.55;1.10;;;;;;;7.60;100.00;100922.16;5009012;28;20476;-69
2023/11/08 02:08:31;;;;;;;3.00;1.17;;;;;;;7.72;100.00;100928.03;5011533;28;20037;-68
2023/11/08 02:10:58;;;;;;;6.32;0.98;;;;;;;7.68;100.00;100929.25;5010382;28;20045;-68
2023/11/08 02:13:24;;;;;;;5.78;0.80;;;;;;;7.62;100.00;100925.44;5013999;28;20045;-68
2023/11/08 02:15:50;;;;;;;4.25;1.95;;;;;;;7.67;100.00;100928.44;5012480;28;20107;-69
2023/11/08 02:18:16;;;;;;;6.32;1.00;;;;;;;7.68;100.00;100919.72;5019631;28;20468;-69
2023/11/08 02:20:42;;;;;;;5.05;1.13;;;;;;;7.67;100.00;100919.88;5031277;28;20038;-68
2023/11/08 02:23:08;;;;;;;3.75;1.33;;;;;;;7.64;100.00;100917.56;5012467;28;20088;-68
2023/11/08 02:25:33;;;;;;;2.15;0.77;;;;;;;7.60;100.00;100932.50;5012053;28;20030;-68
2023/11/08 02:27:59;;;;;;;9.43;1.20;;;;;;;7.75;100.00;100931.16;5010917;28;20042;-69
2023/11/08 02:30:25;;;;;;;4.55;1.45;;;;;;;7.59;100.00;100934.25;5011543;28;20149;-67
2023/11/08 02:32:52;;;;;;;4.05;1.10;;;;;;;7.60;100.00;100922.16;5028403;28;21120;-67
2023/11/08 02:35:17;;;;;;;6.03;1.13;;;;;;;7.61;100.00;100923.81;5028685;28;20038;-67
2023/11/08 02:37:44;;;;;;;2.58;0.70;;;;;;;7.62;100.00;100924.63;4994044;28;20052;-67
2023/11/08 02:40:11;;;;;;;4.05;1.20;;;;;;;7.62;100.00;100925.44;5014803;28;20038;-67
2023/11/08 02:42:44;;;;;;;3.78;1.02;;;;;;;7.69;100.00;100928.31;5010199;28;20033;-68
2023/11/08 02:45:09;;;;;;;4.22;1.05;;;;;;;7.59;100.00;100928.25;5030001;28;20041;-67
2023/11/08 02:47:36;;;;;;;9.10;1.00;;;;;;;7.64;100.00;100931.28;5012955;28;20120;-67
2023/11/08 02:50:02;;;;;;;4.43;1.00;;;;;;;7.65;100.00;100932.91;5011084;28;20037;-67
2023/11/08 02:52:32;;;;;;;3.60;0.70;;;;;;;7.67;100.00;100928.44;5015229;28;20041;-67
2023/11/08 02:54:58;;;;;;;4.25;0.90;;;;;;;7.67;100.00;100928.44;5026169;28;20092;-67
2023/11/08 02:57:24;;;;;;;3.75;1.20;;;;;;;7.66;100.00;100929.38;5034539;28;20042;-67
2023/11/08 02:59:51;;;;;;;8.10;1.00;;;;;;;7.67;100.00;100930.22;5008542;28;20046;-67
2023/11/08 03:02:17;;;;;;;3.92;0.80;;;;;;;7.57;100.00;100925.84;5027760;28;20551;-68
2023/11/08 03:04:43;;;;;;;6.13;0.88;;;;;;;7.77;100.00;100929.25;5011931;28;20133;-67
2023/11/08 03:07:09;;;;;;;4.05;1.10;;;;;;;7.65;100.00;100932.06;5010517;28;20034;-67
2023/11/08 03:09:34;;;;;;;2.47;0.90;;;;;;;7.66;100.00;100928.56;4996500;28;20029;-68
2023/11/08 03:12:00;;;;;;;8.32;0.90;;;;;;;7.59;100.00;100936.00;5013463;28;20479;-67
2023/11/08 03:14:26;;;;;;;4.15;0.90;;;;;;;7.67;100.00;100931.00;5010635;28;20025;-68
2023/11/08 03:16:52;;;;;;;6.82;1.38;;;;;;;7.75;100.00;100933.72;5009771;28;20030;-67
2023/11/08 03:19:21;;;;;;;6.90;1.33;;;;;;;7.68;100.00;100932.63;5009923;28;20108;-67
2023/11/08 03:21:47;;;;;;;4.50;0.73;;;;;;;7.79;100.00;100942.03;5022280;28;20041;-67
2023/11/08 03:24:12;;;;;;;3.13;0.70;;;;;;;7.75;100.00;100941.47;5015769;28;20037;-68
2023/11/08 03:26:38;;;;;;;4.60;1.02;;;;;;;7.70;100.00;100943.63;5016666;28;20064;-67
2023/11/08 03:29:03;;;;;;;8.48;1.33;;;;;;;7.65;100.00;100950.97;5032076;28;20032;-68
2023/11/08 03:31:31;;;;;;;4.38;1.05;;;;;;;7.68;100.00;100949.88;5011505;28;20400;-67
2023/11/08 03:33:57;;;;;;;5.55;1.00;;;;;;;7.70;100.00;100948.00;5027344;28;20113;-67
2023/11/08 03:36:28;;;;;;;8.60;1.00;;;;;;;7.57;100.00;100951.66;5017103;28;20052;-67
2023/11/08 03:38:57;;;;;;;5.85;0.60;;;;;;;7.52;100.00;100953.00;5016133;28;20083;-67
2023/11/08 03:41:24;;;;;;;2.90;1.05;;;;;;;7.52;100.00;100960.72;5014485;28;20408;-67
2023/11/08 03:43:54;;;;;;;4.15;1.42;;;;;;;7.46;100.00;100963.81;5013175;28;20168;-67
2023/11/08 03:46:21;;;;;;;10.30;1.95;;;;;;;7.44;100.00;100956.22;5030978;28;20076;-68
2023/11/08 03:48:58;;;;;;;5.90;1.02;;;;;;;7.41;100.00;100953.91;5035022;28;20044;-67
2023/11/08 03:51:27;;;;;;;4.90;1.10;;;;;;;7.45;100.00;100959.63;5018504;28;20507;-67
2023/11/08 03:53:52;;;;;;;2.33;0.90;;;;;;;7.31;100.00;100963.38;5038175;28;20044;-67
2023/11/08 03:56:18;;;;;;;7.43;1.23;;;;;;;7.27;100.00;100964.56;5013005;28;20038;-67
2023/11/08 03:58:44;;;;;;;3.30;0.98;;;;;;;7.27;100.00;100959.41;5031728;28;20117;-67
2023/11/08 04:01:09;;;;;;;6.28;0.90;;;;;;;7.26;100.00;100955.22;5011455;28;20042;-68
2023/11/08 04:03:35;;;;;;;5.03;1.20;;;;;;;7.22;100.00;100960.63;5010747;28;20528;-67
2023/11/08 04:06:00;;;;;;;6.63;1.00;;;;;;;7.17;100.00;100956.81;5012425;28;20042;-67
2023/11/08 04:08:26;;;;;;;5.82;1.55;;;;;;;7.17;100.00;100960.19;5007715;28;20042;-67
2023/11/08 04:10:52;;;;;;;6.40;1.25;;;;;;;7.15;100.00;100962.09;5013736;28;20128;-67
2023/11/08 04:13:18;;;;;;;6.38;1.10;;;;;;;7.28;100.00;100968.81;5025597;28;20491;-67
2023/11/08 04:15:45;;;;;;;6.75;0.95;;;;;;;7.21;100.00;100971.06;5023587;28;20039;-67
2023/11/08 04:18:11;;;;;;;2.45;0.80;;;;;;;7.17;100.00;100965.34;5011812;28;20029;-67
2023/11/08 04:20:36;;;;;;;5.45;1.00;;;;;;;7.15;100.00;100974.97;5009003;28;20557;-67
2023/11/08 04:23:02;;;;;;;2.95;0.90;;;;;;;7.15;100.00;100974.19;5011409;28;20033;-67
2023/11/08 04:25:27;;;;;;;6.00;1.10;;;;;;;7.07;100.00;100969.66;5010134;28;20041;-67
2023/11/08 04:27:53;;;;;;;2.30;1.05;;;;;;;7.10;100.00;100958.25;5025075;28;20091;-67
2023/11/08 04:30:18;;;;;;;4.82;1.00;;;;;;;7.17;100.00;100961.97;5013547;28;20045;-67
2023/11/08 04:32:44;;;;;;;7.32;1.52;;;;;;;7.09;100.00;100966.97;5007877;28;20034;-66
2023/11/08 04:35:10;;;;;;;4.88;1.13;;;;;;;7.02;100.00;100964.88;5010233;28;20107;-68
2023/11/08 04:37:39;;;;;;;2.10;0.95;;;;;;;6.98;100.00;100962.69;5012376;28;20034;-67
2023/11/08 04:40:06;;;;;;;6.13;1.23;;;;;;;7.00;100.00;100961.63;5024922;28;20081;-67
2023/11/08 04:42:31;;;;;;;4.32;1.05;;;;;;;7.04;100.00;100963.94;5041550;28;20037;-67
2023/11/08 04:44:57;;;;;;;8.00;1.13;;;;;;;7.00;100.00;100948.72;5020528;28;20041;-67
2023/11/08 04:47:25;;;;;;;7.07;2.35;;;;;;;6.96;100.00;100959.44;5013867;28;20057;-67
2023/11/08 04:49:52;;;;;;;4.75;1.25;;;;;;;6.92;100.00;100956.28;5006834;28;20050;-67
2023/11/08 04:52:17;;;;;;;8.88;1.65;;;;;;;6.92;100.00;100956.28;5009261;28;20036;-67
2023/11/08 04:54:45;;;;;;;6.25;1.13;;;;;;;6.97;100.00;100953.34;5011809;28;20041;-67
2023/11/08 04:57:16;;;;;;;6.40;1.30;;;;;;;7.00;100.00;100950.50;5006788;28;20395;-67
2023/11/08 04:59:46;;;;;;;6.35;1.00;;;;;;;7.00;100.00;100953.88;5025795;28;20634;-67
2023/11/08 05:02:15;;;;;;;4.43;0.90;;;;;;;7.04;100.00;100964.75;5023334;28;20483;-68
2023/11/08 05:04:48;;;;;;;4.18;1.17;;;;;;;7.06;100.00;100952.53;5011006;28;20442;-66
2023/11/08 05:07:14;;;;;;;4.38;1.00;;;;;;;7.06;100.00;100957.69;5010548;28;20053;-67
2023/11/08 05:09:40;;;;;;;9.20;2.80;;;;;;;6.95;100.00;100955.22;5008361;28;20544;-67
2023/11/08 05:12:07;;;;;;;4.97;1.13;;;;;;;6.92;100.00;100961.44;5013307;28;20116;-68
2023/11/08 05:14:33;;;;;;;2.53;0.80;;;;;;;6.83;100.00;100968.16;5008007;28;20112;-67
2023/11/08 05:17:00;;;;;;;8.32;1.80;;;;;;;6.75;100.00;100965.44;5010070;28;20587;-67
2023/11/08 05:19:25;;;;;;;5.03;0.85;;;;;;;6.97;100.00;100963.66;5025290;28;20094;-67
2023/11/08 05:21:51;;;;;;;3.13;1.05;;;;;;;6.85;100.00;100962.91;5010606;28;20030;-67
2023/11/08 05:24:18;;;;;;;5.32;1.10;;;;;;;6.79;100.00;100958.25;5023732;28;20033;-67
2023/11/08 05:26:44;;;;;;;6.65;1.25;;;;;;;6.88;100.00;100965.22;5013206;28;20041;-67
2023/11/08 05:29:18;;;;;;;10.57;1.27;;;;;;;6.92;100.00;100966.59;5008587;28;20510;-67
2023/11/08 05:31:44;;;;;;;7.55;1.30;;;;;;;6.94;100.00;100963.91;5008529;28;20046;-67
2023/11/08 05:34:09;;;;;;;6.68;1.00;;;;;;;6.92;100.00;100969.19;5024192;28;20079;-68
2023/11/08 05:36:36;;;;;;;10.43;1.50;;;;;;;6.89;100.00;100960.88;5027124;28;20056;-67
2023/11/08 05:39:07;;;;;;;5.47;1.35;;;;;;;6.93;100.00;100963.09;5027840;28;20030;-67
2023/11/08 05:41:36;;;;;;;9.15;1.63;;;;;;;6.94;100.00;100953.59;5026910;28;20384;-67
2023/11/08 05:44:03;;;;;;;6.10;1.10;;;;;;;6.95;100.00;100961.19;5033437;28;20048;-67
2023/11/08 05:46:30;;;;;;;10.95;1.73;;;;;;;6.91;100.00;100962.41;5042977;28;20358;-67
2023/11/08 05:49:00;;;;;;;5.57;1.13;;;;;;;6.91;100.00;100965.00;5028759;28;20025;-67
2023/11/08 05:51:27;;;;;;;7.75;1.52;;;;;;;6.92;100.00;100960.63;5026283;28;20399;-67
2023/11/08 05:53:54;;;;;;;4.13;1.33;;;;;;;6.96;100.00;100962.81;5045862;28;20444;-67
2023/11/08 05:56:20;;;;;;;15.65;2.40;;;;;;;7.01;100.00;100970.19;5044511;28;20037;-67
2023/11/08 05:58:45;;;;;;;10.82;1.48;;;;;;;6.98;100.00;100970.44;5027322;28;20067;-67
2023/11/08 06:01:20;;;;;;;6.28;1.20;;;;;;;6.93;100.00;100965.66;5030101;28;20141;-67
2023/11/08 06:03:45;;;;;;;7.97;1.20;;;;;;;6.99;100.00;100964.34;5028321;28;20079;-67
2023/11/08 06:06:11;;;;;;;6.20;1.35;;;;;;;6.91;100.00;100970.16;5031196;28;23519;-67
2023/11/08 06:08:36;;;;;;;12.52;1.70;;;;;;;6.87;100.00;100965.34;5032587;28;20049;-67
2023/11/08 06:11:04;;;;;;;8.38;1.42;;;;;;;6.93;100.00;100975.97;5028692;28;20044;-67
2023/11/08 06:13:32;;;;;;;4.57;1.70;;;;;;;6.98;100.00;100971.25;5033787;28;20041;-67
2023/11/08 06:15:58;;;;;;;6.85;1.55;;;;;;;7.03;100.00;100973.44;5030258;28;20419;-68
2023/11/08 06:18:26;;;;;;;8.52;1.55;;;;;;;6.97;100.00;100979.13;5035263;28;20022;-67
2023/11/08 06:20:54;;;;;;;5.88;1.25;;;;;;;6.88;100.00;100992.78;5045325;28;20479;-67
2023/11/08 06:23:20;;;;;;;11.25;1.92;;;;;;;7.09;100.00;100988.41;5027875;28;20045;-67
2023/11/08 06:25:45;;;;;;;12.65;1.80;;;;;;;6.98;100.00;100989.28;5031716;28;20076;-67
2023/11/08 06:28:14;;;;;;;7.47;1.80;;;;;;;6.96;100.00;100998.09;5031706;28;20037;-67
2023/11/08 06:30:43;;;;;;;7.60;1.63;;;;;;;6.98;100.00;101006.53;5035761;28;20037;-67
2023/11/08 06:33:08;;;;;;;8.63;1.60;;;;;;;6.91;100.00;101007.97;5032526;28;20037;-67
2023/11/08 06:35:35;;;;;;;10.88;2.28;;;;;;;6.88;100.00;101019.38;5026863;28;20088;-67
2023/11/08 06:38:04;;;;;;;6.93;1.65;;;;;;;6.96;100.00;101024.69;5032011;28;20029;-67
2023/11/08 06:40:29;;;;;;;21.48;2.38;;;;;;;7.04;100.00;101015.50;5040755;28;20061;-68
2023/11/08 06:42:55;;;;;;;10.82;1.85;;;;;;;6.97;100.00;101023.78;5031685;28;20053;-67
2023/11/08 06:45:21;;;;;;;3.05;1.25;;;;;;;6.99;100.00;101019.28;5029973;28;20569;-67
2023/11/08 06:47:46;;;;;;;4.20;1.67;;;;;;;7.09;100.00;101018.53;5034143;28;20882;-67
2023/11/08 06:50:12;;;;;;;7.15;2.03;;;;;;;7.13;100.00;101023.28;5033267;28;20052;-67
2023/11/08 06:52:38;;;;;;;12.85;1.98;;;;;;;7.17;100.00;101023.84;5034644;28;20040;-67
2023/11/08 06:55:07;;;;;;;9.73;2.20;;;;;;;7.23;100.00;101013.03;5011883;28;20549;-67
2023/11/08 06:57:33;;;;;;;9.77;1.65;;;;;;;7.22;100.00;101016.56;5046585;28;20604;-67
2023/11/08 06:59:59;;;;;;;7.85;1.92;;;;;;;7.21;100.00;101023.50;5044803;28;20045;-67
2023/11/08 07:02:25;;;;;;;13.82;2.40;;;;;;;7.24;100.00;101024.19;5048258;28;20044;-67
2023/11/08 07:04:50;;;;;;;16.20;3.88;;;;;;;7.21;100.00;101023.50;5032233;28;20037;-67
2023/11/08 07:07:16;;;;;;;18.85;4.45;;;;;;;7.22;100.00;101019.94;5027352;28;20404;-67
2023/11/08 07:09:42;;;;;;;18.35;4.40;;;;;;;7.24;100.00;101017.25;5031057;28;20042;-68
2023/11/08 07:12:08;;;;;;;21.80;6.68;;;;;;;7.24;100.00;101016.44;5032411;28;20049;-68
2023/11/08 07:14:37;;;;;;;20.90;5.90;;;;;;;7.33;100.00;101002.78;5029702;28;20049;-67
2023/11/08 07:17:03;;;;;;;76.20;21.88;;;;;;;7.36;100.00;101002.50;5031474;28;20494;-68
2023/11/08 07:19:29;;;;;;;157.65;49.30;;;;;;;7.29;100.00;101002.22;5032120;28;20549;-68
2023/11/08 07:21:55;;;;;;;19.52;8.73;;;;;;;7.36;100.00;101005.88;5032910;28;20488;-67
2023/11/08 07:24:22;;;;;;;28.73;12.07;;;;;;;7.49;100.00;101010.00;5024344;28;20065;-68
2023/11/08 07:26:51;;;;;;;37.45;15.82;;;;;;;7.46;100.00;101005.09;5030739;28;20050;-67
2023/11/08 07:29:17;;;;;;;52.40;21.33;;;;;;;7.46;100.00;101007.69;5031525;28;20699;-67
2023/11/08 07:31:43;;;;;;;23.50;6.75;;;;;;;7.63;100.00;101014.81;5030836;28;20040;-67
2023/11/08 07:34:08;;;;;;;25.98;10.88;;;;;;;7.73;100.00;101007.09;5014160;28;20412;-67
2023/11/08 07:36:34;;;;;;;19.10;6.25;;;;;;;7.58;100.00;101006.66;5029412;28;20049;-68
2023/11/08 07:39:01;;;;;;;24.05;6.43;;;;;;;7.64;100.00;101013.88;5035447;28;20029;-67
2023/11/08 07:41:26;;;;;;;16.73;3.42;;;;;;;7.64;100.00;101021.59;5029893;28;20115;-67
2023/11/08 07:43:52;;;;;;;16.05;3.58;;;;;;;7.68;100.00;101028.13;5028557;28;20634;-67
2023/11/08 07:46:17;;;;;;;13.43;3.13;;;;;;;7.61;100.00;101024.47;5032199;28;20514;-67
2023/11/08 07:48:43;;;;;;;9.32;2.05;;;;;;;7.63;100.00;101021.72;5027344;28;20075;-67
2023/11/08 07:51:09;;;;;;;11.93;4.10;;;;;;;7.65;100.00;101030.16;5033331;28;20037;-67
2023/11/08 07:53:35;;;;;;;15.90;3.83;;;;;;;7.76;100.00;101017.97;5030661;28;20462;-67
2023/11/08 07:56:00;;;;;;;17.13;2.88;;;;;;;7.77;100.00;101019.59;5032499;28;20048;-67
2023/11/08 07:58:26;;;;;;;11.70;3.33;;;;;;;7.80;100.00;101019.34;5036160;28;20513;-67
2023/11/08 08:00:52;;;;;;;19.88;7.60;;;;;;;7.87;100.00;101018.81;5025857;28;20045;-67
2023/11/08 08:03:19;;;;;;;15.45;8.50;;;;;;;7.78;100.00;101020.44;5029107;28;20128;-67
2023/11/08 08:05:45;;;;;;;14.15;5.93;;;;;;;7.82;100.00;101021.81;5025290;28;20102;-67
2023/11/08 08:08:12;;;;;;;10.18;3.58;;;;;;;7.87;100.00;101026.56;5033424;28;20125;-67
2023/11/08 08:10:37;;;;;;;13.88;2.88;;;;;;;7.96;100.00;101025.75;5045367;28;20044;-68
2023/11/08 08:13:03;;;;;;;13.48;5.85;;;;;;;8.15;100.00;101033.53;5045693;28;20029;-67
2023/11/08 08:15:32;;;;;;;8.85;2.25;;;;;;;8.39;100.00;101027.97;5054373;22;20064;-67
2023/11/08 08:18:01;;;;;;;14.13;4.82;;;;;;;8.54;100.00;101028.41;5050354;28;20444;-67
2023/11/08 08:20:32;;;;;;;8.32;2.20;;;;;;;8.87;100.00;101018.59;5044577;28;20048;-67
2023/11/08 08:22:58;;;;;;;8.30;3.22;;;;;;;9.00;100.00;101022.63;5069325;28;20029;-67
2023/11/08 08:25:23;;;;;;;14.23;2.58;;;;;;;9.26;99.29;101023.63;5053419;28;20056;-67
2023/11/08 08:27:49;;;;;;;9.07;1.55;;;;;;;9.54;97.92;101028.84;5069800;28;20085;-67
2023/11/08 08:30:15;;;;;;;9.10;1.85;;;;;;;9.59;96.62;101030.97;5059810;28;20414;-67
2023/11/08 08:32:42;;;;;;;9.75;2.05;;;;;;;9.87;95.56;101022.25;5069310;28;20043;-68
2023/11/08 08:35:08;;;;;;;7.85;1.58;;;;;;;9.92;94.30;101022.63;5066270;28;20063;-67
2023/11/08 08:37:33;;;;;;;9.27;3.35;;;;;;;10.02;93.81;101021.75;5064474;28;20040;-68
2023/11/08 08:39:59;;;;;;;12.32;2.60;;;;;;;10.24;92.71;101021.31;5069569;28;20135;-67
2023/11/08 08:42:25;;;;;;;4.85;1.20;;;;;;;10.31;91.68;101017.19;5069109;28;20383;-67
2023/11/08 08:44:51;;;;;;;13.05;1.35;;;;;;;10.12;92.61;101022.50;5065893;28;20090;-67
2023/11/08 08:47:16;;;;;;;5.55;1.50;;;;;;;9.82;94.11;101027.06;5068894;28;20435;-67
2023/11/08 08:49:42;;;;;;;5.72;1.45;;;;;;;9.59;95.26;101018.03;5048285;28;20025;-67
2023/11/08 08:52:08;;;;;;;7.85;1.40;;;;;;;9.60;95.76;101017.09;5069044;28;20047;-67
2023/11/08 08:54:33;;;;;;;7.45;1.90;;;;;;;9.59;95.40;101026.66;5083498;28;20093;-68
2023/11/08 08:57:00;;;;;;;6.90;1.30;;;;;;;9.59;95.00;101015.44;5070268;28;20040;-67
2023/11/08 08:59:27;;;;;;;9.98;1.38;;;;;;;9.49;95.90;101023.28;5070580;28;20482;-67
2023/11/08 09:01:53;;;;;;;7.78;2.10;;;;;;;9.47;96.08;101030.38;5066482;28;20036;-68
2023/11/08 09:04:18;;;;;;;15.20;1.30;;;;;;;9.31;97.02;101028.41;5065994;28;20460;-68
2023/11/08 09:06:44;;;;;;;9.20;2.15;;;;;;;9.29;97.02;101025.94;5064171;28;20041;-67
2023/11/08 09:09:12;;;;;;;6.57;1.20;;;;;;;9.26;96.81;101023.63;5061126;28;20043;-67
2023/11/08 09:11:37;;;;;;;6.55;1.45;;;;;;;9.34;95.94;101039.28;5065563;28;20045;-67
2023/11/08 09:14:03;;;;;;;8.70;1.60;;;;;;;9.42;94.90;101035.97;5069288;28;20118;-67
2023/11/08 09:16:29;;;;;;;8.90;1.35;;;;;;;9.48;94.03;101038.00;5064388;28;20510;-68
2023/11/08 09:18:54;;;;;;;11.52;1.40;;;;;;;9.58;93.49;101050.88;5067648;28;20471;-68
2023/11/08 09:21:22;;;;;;;7.78;1.38;;;;;;;9.66;92.74;101051.00;5047385;28;20037;-68
2023/11/08 09:23:48;;;;;;;8.40;1.50;;;;;;;9.75;92.87;101041.53;5066158;28;20029;-67
2023/11/08 09:26:13;;;;;;;8.95;2.42;;;;;;;9.83;91.71;101041.66;5066055;28;20043;-67
2023/11/08 09:28:39;;;;;;;5.50;1.40;;;;;;;9.82;91.07;101041.78;5066209;28;20086;-67
2023/11/08 09:31:04;;;;;;;12.38;1.70;;;;;;;9.91;90.59;101040.94;5073653;28;20055;-68
2023/11/08 09:33:30;;;;;;;17.10;1.42;;;;;;;9.90;89.46;101041.88;5071987;28;20482;-67
2023/11/08 09:35:55;;;;;;;9.63;1.45;;;;;;;9.93;89.88;101034.63;5053882;28;20036;-68
2023/11/08 09:38:21;;;;;;;11.82;1.40;;;;;;;10.02;89.24;101032.94;5048228;28;20028;-67
2023/11/08 09:40:46;;;;;;;7.85;1.20;;;;;;;9.92;90.15;101043.34;5069713;28;20570;-67
2023/11/08 09:43:12;;;;;;;11.57;1.85;;;;;;;9.90;89.77;101037.50;5071428;28;20461;-68
2023/11/08 09:45:39;;;;;;;6.28;1.20;;;;;;;10.00;89.79;101027.09;5073410;28;20494;-67
2023/11/08 09:48:05;;;;;;;11.00;1.60;;;;;;;9.94;88.89;101023.31;5072664;28;20041;-68
2023/11/08 09:50:31;;;;;;;13.52;2.00;;;;;;;9.91;88.25;101030.56;5071171;28;20406;-68
2023/11/08 09:52:57;;;;;;;11.63;1.63;;;;;;;10.01;88.12;101022.72;5071038;28;20028;-67
2023/11/08 09:55:22;;;;;;;5.38;1.10;;;;;;;10.00;88.06;101021.09;5065331;28;20052;-67
2023/11/08 09:57:50;;;;;;;4.63;1.60;;;;;;;10.01;87.66;101027.91;5070761;28;20417;-67
2023/11/08 10:00:20;;;;;;;5.95;1.42;;;;;;;10.00;86.80;101028.84;5068383;28;20642;-68
2023/11/08 10:02:46;;;;;;;15.32;2.63;;;;;;;9.90;86.94;101026.31;5070022;28;20111;-67
2023/11/08 10:05:11;;;;;;;7.78;2.45;;;;;;;10.02;87.05;101026.94;5069622;28;20053;-67
2023/11/08 10:07:39;;;;;;;6.93;1.92;;;;;;;10.03;87.14;101021.59;5067768;28;20115;-67
2023/11/08 10:10:06;;;;;;;11.45;2.03;;;;;;;10.11;86.17;101026.06;5071359;28;20040;-68
2023/11/08 10:12:32;;;;;;;7.13;1.20;;;;;;;10.14;86.42;101018.00;5070230;28;20506;-67
2023/11/08 10:15:03;;;;;;;4.38;1.20;;;;;;;10.14;86.58;101018.00;5054276;28;20064;-68
2023/11/08 10:17:36;;;;;;;7.47;1.55;;;;;;;10.17;85.47;101014.28;5072472;28;20034;-67
2023/11/08 10:20:03;;;;;;;7.25;1.20;;;;;;;10.14;85.09;101023.97;5067995;28;20086;-68
2023/11/08 10:22:28;;;;;;;9.68;1.70;;;;;;;10.29;85.71;101020.88;5070913;28;20033;-67
2023/11/08 10:24:56;;;;;;;6.75;1.20;;;;;;;10.23;84.91;101035.25;5070258;28;20033;-68
2023/11/08 10:27:23;;;;;;;8.00;1.38;;;;;;;10.30;84.95;101031.13;5067489;28;20124;-67
2023/11/08 10:29:54;;;;;;;8.88;1.73;;;;;;;10.29;85.30;101013.91;5069604;28;25148;-67
2023/11/08 10:32:24;;;;;;;5.05;1.58;;;;;;;10.28;85.86;101030.44;5074666;28;20043;-67
2023/11/08 10:34:52;;;;;;;8.73;1.60;;;;;;;10.16;85.65;101018.66;5073002;28;20234;-68
2023/11/08 10:37:28;;;;;;;7.18;1.30;;;;;;;10.17;85.56;101014.28;5075782;28;20032;-67
2023/11/08 10:39:56;;;;;;;13.80;1.67;;;;;;;10.19;84.67;101008.00;5066099;28;20082;-68
2023/11/08 10:42:24;;;;;;;7.55;1.67;;;;;;;10.13;84.86;101009.41;5069075;28;20487;-67
2023/11/08 10:44:52;;;;;;;9.55;1.42;;;;;;;10.23;84.31;100996.38;5067472;28;20052;-69
2023/11/08 10:47:17;;;;;;;8.98;1.50;;;;;;;10.27;83.67;101002.06;5071049;28;20437;-67
2023/11/08 10:49:50;;;;;;;9.98;1.45;;;;;;;10.18;85.26;100997.78;5067878;28;20028;-68
2023/11/08 10:52:18;;;;;;;7.97;1.50;;;;;;;10.35;83.85;100991.00;5071992;28;20043;-68
2023/11/08 10:54:44;;;;;;;10.75;1.80;;;;;;;10.25;85.17;100994.44;5068816;28;20155;-68
2023/11/08 10:57:13;;;;;;;9.60;1.40;;;;;;;10.24;84.11;100992.00;5074826;28;20062;-68
2023/11/08 10:59:42;;;;;;;9.50;1.48;;;;;;;10.28;83.53;100993.31;5065423;28;20115;-67
2023/11/08 11:02:24;;;;;;;9.00;2.33;;;;;;;10.26;83.64;100990.06;5068160;28;20479;-68
2023/11/08 11:04:56;;;;;;;4.88;1.20;;;;;;;10.22;83.04;100983.56;5068453;28;20423;-67
2023/11/08 11:07:28;;;;;;;7.70;1.30;;;;;;;10.15;83.83;100983.31;5070089;28;20067;-68
2023/11/08 11:09:54;;;;;;;9.32;1.58;;;;;;;10.06;82.85;100979.88;5069514;28;20131;-67
2023/11/08 11:12:29;;;;;;;7.50;1.50;;;;;;;10.07;83.42;100978.09;5067265;28;20040;-68
2023/11/08 11:14:58;;;;;;;7.03;1.83;;;;;;;10.08;83.88;100975.34;5071211;28;20482;-68
2023/11/08 11:17:37;;;;;;;5.38;1.38;;;;;;;10.22;84.05;100970.59;5065767;28;20040;-67
2023/11/08 11:20:10;;;;;;;11.68;1.35;;;;;;;10.30;82.44;100971.53;5068892;28;20043;-68
2023/11/08 11:22:38;;;;;;;6.75;1.35;;;;;;;10.37;82.90;100971.72;5067146;28;20048;-67